Latest Weather Observations for Giles*

IDD60801

Issued at 3:01 am CST Monday 31 August 2015 (issued every 30 minutes, with the page automatically refreshed every 10 minutes)

About weather observations | Map of weather stations | Latest weather observations for NT | Other Formats
Station Details ID: 013017 Name: GILES METEOROLOGICAL OFFICE Lat: -25.03 Lon: 128.30 Height: 598.0 m
Data from the previous 72 hours. | See also: Recent months at Giles*

* Giles observations are collected in the South Australia time zone, which includes daylight saving in the summer period. Therefore, Rain since 9am value is with respect to South Australia local time.

Date/Time
CST
Temp
°C
App
Temp
°C
Dew
Point
Rel
Hum
%
Delta-T
°C
Wind Press
QNH
hPa
Press
MSL
hPa
Rain
since 9 am
mm
Dir
 
Spd
km/h
Gust
km/h
Spd
kts
Gust
kts
31/03:00am 17.3 15.6 13.7 79 2.1 NE 15 19 8 10 1017.4 1016.0 6.8
31/02:30am 17.4 15.3 13.6 78 2.2 NE 17 26 9 14 1017.6 1016.3 6.8
31/02:00am 17.2 15.3 14.1 82 1.8 NE 17 28 9 15 1017.8 1016.5 6.8
31/01:30am 16.6 15.3 14.9 90 1.0 N 15 22 8 12 1018.4 1017.1 6.8
31/01:00am 17.1 17.1 14.2 83 1.7 E 7 11 4 6 1018.4 1017.1 6.6
31/12:30am 17.3 15.4 14.1 81 1.9 E 17 20 9 11 1018.1 1016.8 6.6
31/12:00am 17.1 14.9 14.4 84 1.6 E 19 22 10 12 1018.7 1017.4 6.6
 
Date/Time
CST
Temp
°C
App
Temp
°C
Dew
Point
Rel
Hum
%
Delta-T
°C
Wind Press
QNH
hPa
Press
MSL
hPa
Rain
since 9 am
mm
Dir
 
Spd
km/h
Gust
km/h
Spd
kts
Gust
kts
30/11:30pm 17.9 17.0 13.8 77 2.4 E 11 19 6 10 1018.8 1017.5 6.6
30/11:00pm 17.1 15.4 14.7 86 1.4 E 17 24 9 13 1018.4 1017.1 6.6
30/10:30pm 17.2 15.5 14.8 86 1.4 E 17 26 9 14 1018.8 1017.5 6.6
30/10:00pm 17.6 16.0 14.9 84 1.6 E 17 22 9 12 1019.2 1017.9 6.6
30/09:30pm 17.2 16.1 15.4 89 1.1 E 15 19 8 10 1019.1 1017.8 6.6
30/09:00pm 17.1 16.9 15.8 92 0.8 SSE 11 13 6 7 1019.3 1018.0 6.6
30/08:30pm 17.5 18.1 15.8 90 1.0 N 7 15 4 8 1019.5 1018.2 6.4
30/08:18pm 18.0 16.0 15.0 82 1.8 WNW 19 28 10 15 1020.2 1018.9 5.2
30/08:08pm 19.9 19.1 14.0 69 3.5 NNW 11 20 6 11 1019.7 1018.4 2.0
30/08:00pm 20.1 19.5 13.5 66 3.9 E 9 11 5 6 1018.5 1017.2 1.8
30/07:30pm 19.8 19.0 13.9 69 3.5 NNE 11 13 6 7 1018.2 1016.9 1.8
30/07:00pm 20.0 19.7 14.3 69 3.4 NNW 9 11 5 6 1018.2 1016.9 1.8
30/06:30pm 21.8 19.9 12.9 57 5.2 W 15 19 8 10 1018.3 1017.0 1.8
30/06:02pm 23.4 19.6 11.0 45 7.1 N 22 46 12 25 1016.8 1015.5 1.8
30/06:00pm 23.8 20.9 11.1 44 7.3 N 17 35 9 19 1016.8 1015.5 1.8
30/05:30pm 23.7 22.1 11.6 46 7.0 NE 11 15 6 8 1016.6 1015.3 1.8
30/05:00pm 22.9 21.6 12.5 52 6.1 NNE 11 13 6 7 1016.7 1015.4 1.8
30/04:30pm 23.5 22.4 13.2 52 6.1 NNE 11 15 6 8 1017.1 1015.8 1.8
30/04:00pm 21.3 21.0 14.5 65 4.1 NNE 9 17 5 9 1017.4 1016.0 1.8
30/03:30pm 18.7 16.5 14.9 78 2.3 NNW 20 32 11 17 1017.9 1016.6 1.8
30/03:16pm 18.5 13.9 14.6 78 2.3 NW 32 46 17 25 1018.5 1017.2 1.6
30/03:00pm 19.5 14.0 14.6 73 2.9 NW 37 69 20 37 1018.0 1016.7 0.2
30/02:59pm 20.7 15.1 13.4 63 4.3 NW 35 69 19 37 1017.7 1016.4 0.0
30/02:57pm 24.2 18.7 9.3 38 8.3 NW 28 61 15 33 1017.5 1016.1 0.0
30/02:47pm 27.2 21.4 4.6 23 11.8 NNW 24 35 13 19 1016.7 1015.4 0.0
30/02:30pm 27.9 23.0 5.0 23 12.1 NNW 20 32 11 17 1016.7 1015.4 0.0
30/02:00pm 28.5 23.6 4.2 21 12.7 NNW 19 41 10 22 1017.4 1016.0 0.0
30/01:30pm 29.0 22.8 4.2 20 13.0 NNW 26 41 14 22 1018.2 1016.9 0.0
30/01:00pm 26.2 19.0 5.2 26 11.0 N 32 44 17 24 1018.8 1017.5 0.0
30/12:30pm 26.1 18.8 4.7 25 11.1 N 32 43 17 23 1019.4 1018.1 0.0
30/12:00pm 25.2 17.9 4.6 26 10.6 N 32 43 17 23 1019.9 1018.6 0.0
30/11:30am 24.4 17.2 5.1 28 10.0 N 32 43 17 23 1020.2 1018.9 0.0
30/11:09am 24.1 16.3 4.8 28 9.9 N 35 54 19 29 1020.2 1018.9 0.0
30/11:00am 24.0 15.0 4.4 28 10.0 N 41 54 22 29 1020.2 1018.9 0.0
30/10:30am 23.5 15.9 2.8 26 10.2 NNE 32 43 17 23 1019.9 1018.6 0.0
30/10:07am 22.6 15.4 2.8 27 9.7 NNE 30 50 16 27 1020.1 1018.8 0.0
30/10:00am 22.2 14.9 2.7 27 9.5 NNE 30 41 16 22 1020.2 1018.9 0.0
30/09:30am 19.9 13.9 1.2 28 8.7 N 22 30 12 16 1020.5 1019.3 0.0
30/09:00am 20.1 13.6 0.2 26 9.1 N 24 35 13 19 1020.7 1019.5 0.0
30/08:30am 20.0 12.7 0.0 26 9.1 N 28 35 15 19 1020.2 1018.9 0.0
30/08:00am 20.1 12.8 -0.1 26 9.2 NNE 28 39 15 21 1019.7 1018.4 0.0
30/07:30am 20.1 13.6 0.2 26 9.1 NNE 24 37 13 20 1019.2 1017.9 0.0
30/07:00am 20.5 12.9 0.6 26 9.2 NNE 30 43 16 23 1018.5 1017.2 0.0
30/06:30am 20.6 13.8 0.8 26 9.2 NNE 26 35 14 19 1018.1 1016.8 0.0
30/06:00am 20.6 14.2 0.8 26 9.2 NNE 24 35 13 19 1017.9 1016.6 0.0
30/05:30am 20.7 14.3 0.7 26 9.3 NE 24 39 13 21 1017.6 1016.3 0.0
30/05:00am 20.5 15.0 1.7 28 8.9 NE 20 32 11 17 1017.7 1016.4 0.0
30/04:30am 20.6 15.3 1.9 29 8.9 NE 19 28 10 15 1017.8 1016.5 0.0
30/04:00am 18.0 13.9 2.2 34 7.4 E 13 17 7 9 1018.0 1016.7 0.0
30/03:30am 17.9 14.2 2.1 34 7.4 ESE 11 15 6 8 1018.2 1016.9 0.0
30/03:00am 20.7 15.4 2.0 29 8.9 NE 19 26 10 14 1018.2 1016.9 0.0
30/02:30am 21.2 15.4 2.3 28 9.1 NNE 22 32 12 17 1018.6 1017.3 0.0
30/02:00am 21.2 15.7 1.9 28 9.2 NNE 20 26 11 14 1019.2 1017.9 0.0
30/01:30am 21.7 15.0 1.2 25 9.7 NNE 26 39 14 21 1019.3 1018.0 0.0
30/01:00am 21.6 16.0 1.3 26 9.6 NNE 20 35 11 19 1019.4 1018.1 0.0
30/12:30am 22.0 16.0 1.0 25 9.9 NNE 22 30 12 16 1019.4 1018.1 0.0
30/12:00am 22.1 16.6 1.9 26 9.7 NNE 20 28 11 15 1019.5 1018.2 0.0
 
Date/Time
CST
Temp
°C
App
Temp
°C
Dew
Point
Rel
Hum
%
Delta-T
°C
Wind Press
QNH
hPa
Press
MSL
hPa
Rain
since 9 am
mm
Dir
 
Spd
km/h
Gust
km/h
Spd
kts
Gust
kts
29/11:30pm 22.3 16.7 1.3 25 10.0 NNE 20 26 11 14 1019.6 1018.3 0.0
29/11:00pm 22.7 16.7 1.0 24 10.3 NNE 22 30 12 16 1019.7 1018.4 0.0
29/10:30pm 22.9 17.9 1.4 24 10.3 NNE 17 24 9 13 1019.9 1018.6 0.0
29/10:00pm 22.7 17.8 1.7 25 10.1 NNE 17 20 9 11 1020.0 1018.7 0.0
29/09:30pm 22.6 18.0 1.8 25 10.0 NE 15 17 8 9 1019.9 1018.6 0.0
29/09:00pm 23.1 19.3 1.7 24 10.3 NE 11 17 6 9 1019.7 1018.4 0.0
29/08:30pm 21.8 18.6 3.0 29 9.2 NE 9 11 5 6 1019.6 1018.3 0.0
29/08:00pm 22.3 18.6 2.3 26 9.7 ENE 11 13 6 7 1019.3 1018.0 0.0
29/07:30pm 23.0 19.8 2.9 26 9.9 NE 9 11 5 6 1018.9 1017.6 0.0
29/07:00pm 24.4 21.1 2.2 23 10.9 NE 9 13 5 7 1018.7 1017.4 0.0
29/06:30pm 25.1 21.4 2.2 22 11.3 NE 11 15 6 8 1018.5 1017.2 0.0
29/06:00pm 25.5 21.4 2.0 21 11.6 NNE 13 17 7 9 1018.3 1017.0 0.0
29/05:30pm 26.1 21.9 1.8 20 12.0 NNE 13 19 7 10 1018.1 1016.8 0.0
29/05:00pm 26.2 22.8 1.6 20 12.1 NNE 9 19 5 10 1018.1 1016.8 0.0
29/04:30pm 26.4 22.3 2.0 20 12.1 N 13 20 7 11 1018.2 1016.9 0.0
29/04:00pm 26.0 22.3 2.3 21 11.8 NNE 11 20 6 11 1018.4 1017.1 0.0
29/03:30pm 26.9 22.6 3.0 21 12.1 NNE 15 20 8 11 1018.6 1017.3 0.0
29/03:00pm 26.2 20.7 1.9 20 12.0 NNW 20 32 11 17 1018.9 1017.6 0.0
29/02:30pm 25.2 20.9 5.3 27 10.4 NNE 17 32 9 17 1019.4 1018.1 0.0
29/02:00pm 25.8 20.8 4.5 25 11.0 N 20 30 11 16 1019.9 1018.6 0.0
29/01:30pm 25.3 20.6 6.0 29 10.2 N 20 28 11 15 1020.4 1019.1 0.0
29/01:00pm 24.1 18.8 6.8 33 9.2 N 24 33 13 18 1021.0 1019.7 0.0
29/12:30pm 24.2 18.6 7.2 33 9.1 N 26 35 14 19 1021.7 1020.4 0.0
29/12:00pm 22.9 17.4 7.6 37 8.2 N 26 37 14 20 1022.0 1020.8 0.0
29/11:30am 21.9 16.6 8.4 42 7.3 N 26 35 14 19 1022.4 1021.2 0.0
29/11:00am 20.4 14.6 8.0 44 6.6 N 28 35 15 19 1022.5 1021.3 0.0
29/10:30am 20.1 16.0 8.5 47 6.2 NNE 20 28 11 15 1022.7 1021.4 0.0
29/10:00am 19.3 15.9 9.3 52 5.4 N 17 22 9 12 1022.9 1021.6 0.0
29/09:30am 18.4 14.0 9.1 54 5.0 N 22 33 12 18 1022.8 1021.5 0.0
29/09:00am 17.1 13.4 9.5 61 4.1 NNW 19 30 10 16 1022.7 1021.4 0.0
29/08:30am 16.6 14.9 9.7 63 3.7 N 9 20 5 11 1022.3 1021.1 0.0
29/08:00am 15.7 14.4 9.9 68 3.1 NNW 7 13 4 7 1022.1 1020.9 0.0
29/07:30am 15.0 13.3 10.0 72 2.7 NNW 9 15 5 8 1021.7 1020.4 0.0
29/07:00am 14.8 14.3 9.5 70 2.8 NNE 2 9 1 5 1021.5 1020.2 0.0
29/06:30am 15.6 13.3 9.0 65 3.5 NNE 11 20 6 11 1021.3 1020.0 0.0
29/06:00am 14.6 11.8 8.4 66 3.2 NNE 13 20 7 11 1021.0 1019.7 0.0
29/05:30am 15.5 11.5 8.2 62 3.8 NNE 19 26 10 14 1020.7 1019.5 0.0
29/05:00am 16.0 12.1 8.6 61 3.9 NNE 19 24 10 13 1020.7 1019.5 0.0
29/04:30am 16.1 12.4 7.8 58 4.3 NNE 17 22 9 12 1020.6 1019.4 0.0
29/04:00am 16.4 12.0 7.5 55 4.6 NNE 20 26 11 14 1020.7 1019.5 0.0
29/03:30am 14.6 11.3 4.3 50 4.9 NNE 11 15 6 8 1020.7 1019.5 0.0
29/03:00am 15.7 11.9 3.7 44 5.7 NE 13 17 7 9 1020.9 1019.6 0.0
29/02:30am 16.1 11.9 3.7 43 5.9 ENE 15 19 8 10 1021.0 1019.7 0.0
29/02:00am 16.3 11.7 3.7 43 6.0 ENE 17 20 9 11 1021.4 1020.1 0.0
29/01:30am 16.6 12.0 3.6 42 6.2 ENE 17 19 9 10 1021.6 1020.3 0.0
29/01:00am 17.2 12.6 3.9 41 6.4 ENE 17 20 9 11 1021.8 1020.5 0.0
29/12:30am 17.4 13.0 5.0 44 6.1 E 17 22 9 12 1021.8 1020.5 0.0
29/12:00am 17.7 13.1 3.5 38 6.8 E 17 20 9 11 1021.6 1020.3 0.0
 
Date/Time
CST
Temp
°C
App
Temp
°C
Dew
Point
Rel
Hum
%
Delta-T
°C
Wind Press
QNH
hPa
Press
MSL
hPa
Rain
since 9 am
mm
Dir
 
Spd
km/h
Gust
km/h
Spd
kts
Gust
kts
28/11:30pm 18.6 13.6 3.5 36 7.3 ENE 19 26 10 14 1021.5 1020.2 0.0
28/11:00pm 18.5 14.3 3.6 37 7.2 E 15 20 8 11 1021.5 1020.2 0.0
28/10:30pm 18.0 13.8 4.0 39 6.8 E 15 20 8 11 1021.4 1020.1 0.0
28/10:00pm 18.1 13.5 3.8 38 6.9 E 17 20 9 11 1021.3 1020.0 0.0
28/09:30pm 18.2 13.7 4.0 39 6.9 E 17 20 9 11 1021.1 1019.8 0.0
28/09:00pm 18.0 14.0 3.1 37 7.1 E 13 15 7 8 1020.9 1019.6 0.0
28/08:30pm 20.5 16.5 2.9 31 8.5 ENE 13 13 7 7 1020.3 1019.0 0.0
28/08:00pm 20.8 17.2 2.8 30 8.7 ENE 11 13 6 7 1019.9 1018.6 0.0
28/07:30pm 21.3 17.7 2.8 29 9.0 ENE 11 13 6 7 1019.6 1018.3 0.0
28/07:00pm 21.8 19.1 3.9 31 8.9 ENE 7 9 4 5 1019.2 1017.9 0.0
28/06:30pm 23.0 21.7 4.2 29 9.5 CALM 0 0 0 0 1018.8 1017.5 0.0
28/06:00pm 23.8 20.7 3.4 26 10.2 NE 9 13 5 7 1018.7 1017.4 0.0
28/05:30pm 24.7 21.3 1.8 22 11.2 WNW 9 19 5 10 1018.5 1017.2 0.0
28/05:00pm 24.7 21.5 1.0 21 11.4 NNW 7 17 4 9 1018.4 1017.1 0.0
28/04:30pm 23.9 20.8 1.6 23 10.8 N 7 13 4 7 1018.5 1017.2 0.0
28/04:00pm 24.4 20.4 0.8 21 11.3 NNW 11 26 6 14 1018.6 1017.3 0.0
28/03:30pm 24.3 20.3 0.6 21 11.3 NNW 11 22 6 12 1018.8 1017.5 0.0
28/03:00pm 23.8 19.7 2.1 24 10.6 ENE 13 22 7 12 1019.2 1017.9 0.0
28/02:30pm 24.1 19.4 3.3 25 10.4 NNW 17 26 9 14 1019.6 1018.3 0.0
28/02:00pm 23.8 20.2 4.9 29 9.7 NNW 13 26 7 14 1019.9 1018.6 0.0
28/01:30pm 23.1 18.4 5.2 31 9.2 N 19 32 10 17 1020.4 1019.1 0.0
28/01:00pm 22.9 18.3 5.7 32 8.9 N 19 33 10 18 1021.0 1019.7 0.0
28/12:30pm 23.1 18.5 5.5 32 9.1 N 19 30 10 16 1021.7 1020.4 0.0
28/12:00pm 21.6 17.0 5.6 35 8.2 N 19 32 10 17 1022.2 1021.0 0.0
28/11:30am 21.1 17.1 6.5 38 7.6 NE 17 26 9 14 1022.5 1021.3 0.0
28/11:00am 20.0 16.1 6.9 42 6.8 NNE 17 24 9 13 1022.9 1021.6 0.0
28/10:30am 19.7 15.5 5.7 40 7.1 ENE 17 22 9 12 1022.9 1021.6 0.0
28/10:00am 18.2 13.3 4.0 39 6.9 E 19 24 10 13 1023.1 1021.8 0.0
28/09:30am 17.1 12.0 2.9 38 6.7 ENE 19 26 10 14 1023.0 1021.7 0.0
28/09:00am 16.1 10.7 2.5 40 6.3 ENE 20 28 11 15 1022.9 1021.6 0.0
28/08:30am 14.8 10.3 2.0 42 5.8 ENE 15 20 8 11 1022.7 1021.4 0.0
28/08:00am 13.8 9.7 2.3 45 5.2 E 13 20 7 11 1021.9 1020.6 0.0
28/07:30am 12.8 7.5 1.8 47 4.9 ESE 19 26 10 14 1021.2 1019.9 0.0
28/07:00am 12.7 7.8 1.9 47 4.8 ESE 17 22 9 12 1021.2 1019.9 0.0
28/06:30am 13.0 8.5 2.1 47 4.9 E 15 24 8 13 1020.9 1019.6 0.0
28/06:00am 13.3 9.2 2.5 48 4.9 E 13 19 7 10 1020.6 1019.4 0.0
28/05:30am 13.3 9.7 3.1 50 4.7 ESE 11 20 6 11 1020.2 1018.9 0.0
28/05:00am 14.3 9.5 2.8 46 5.3 E 17 28 9 15 1020.0 1018.7 0.0
28/04:30am 14.8 8.7 2.6 44 5.6 E 24 37 13 20 1019.7 1018.4 0.0
28/04:00am 14.4 9.2 2.6 45 5.4 E 19 28 10 15 1020.0 1018.7 0.0
28/03:30am 14.7 9.3 2.5 43 5.6 E 20 28 11 15 1020.0 1018.7 0.0

Other Formats:

Comma delimited format used in spreadsheet applications
http://www.bom.gov.au/fwo/IDD60801/IDD60801.94461.axf

JavaScript Object Notation format (JSON) in row-major order
http://www.bom.gov.au/fwo/IDD60801/IDD60801.94461.json